TVF3201 GMMN-LFRS
Flight info
| Callsign | TVF3201 |
|---|---|
| Flight time | N/A |
| Altitude | 36000 |
| Route | LAKAM UR722 AMSEL DCT ALAGU DCT ELVAR/N0436F380 DCT BARDI DCT ZMR DCT NUBLO DCT RONSI DCT DELOG/N0421F320 DCT YURZI UL14 TEPRA DCT EPIXO |
| Aircraft | B738/M-SDE2E3FGHIRWXY/LB1 |
Departure
| Time | 2026-05-01 14:25 |
|---|---|
| Airport | Mohammed V International Airport (GMMN) |
Arrival
| Time | N/A |
|---|---|
| Airport | Nantes Atlantique Airport (LFRS) |
| Time | Latitude | Longitude | Altitude | Speed | Heading |
|---|---|---|---|---|---|
| 2026-05-01 14:17 | 33.37217 | -7.58302 | 648 ft | 2 kts | 141° |
| 2026-05-01 14:17 | 33.37229 | -7.58311 | 648 ft | 2 kts | 154° |
| 2026-05-01 14:17 | 33.37242 | -7.58317 | 648 ft | 0 kts | 166° |
| 2026-05-01 14:18 | 33.37244 | -7.58318 | 648 ft | 0 kts | 167° |
| 2026-05-01 14:19 | 33.37238 | -7.58316 | 648 ft | 3 kts | 167° |
| 2026-05-01 14:20 | 33.37200 | -7.58305 | 648 ft | 7 kts | 163° |
| 2026-05-01 14:20 | 33.37016 | -7.58239 | 645 ft | 16 kts | 163° |
| 2026-05-01 14:20 | 33.36933 | -7.58286 | 645 ft | 15 kts | 253° |
| 2026-05-01 14:21 | 33.36908 | -7.58402 | 645 ft | 13 kts | 256° |
| 2026-05-01 14:21 | 33.36844 | -7.58460 | 645 ft | 13 kts | 170° |
| 2026-05-01 14:21 | 33.36735 | -7.58423 | 645 ft | 18 kts | 164° |
| 2026-05-01 14:22 | 33.36430 | -7.58317 | 649 ft | 25 kts | 163° |
| 2026-05-01 14:22 | 33.36264 | -7.58262 | 651 ft | 24 kts | 163° |
| 2026-05-01 14:22 | 33.36105 | -7.58208 | 652 ft | 24 kts | 163° |
| 2026-05-01 14:22 | 33.35925 | -7.58145 | 654 ft | 28 kts | 163° |
| 2026-05-01 14:23 | 33.35716 | -7.58074 | 654 ft | 32 kts | 164° |
| 2026-05-01 14:23 | 33.35505 | -7.58001 | 657 ft | 30 kts | 163° |
| 2026-05-01 14:23 | 33.35319 | -7.57940 | 659 ft | 21 kts | 173° |
| 2026-05-01 14:23 | 33.35238 | -7.58056 | 659 ft | 19 kts | 256° |
| 2026-05-01 14:24 | 33.35202 | -7.58213 | 658 ft | 17 kts | 252° |
| 2026-05-01 14:24 | 33.35207 | -7.58254 | 658 ft | 3 kts | 322° |
| 2026-05-01 14:24 | 33.35266 | -7.58282 | 658 ft | 26 kts | 343° |
| 2026-05-01 14:24 | 33.35666 | -7.58419 | 655 ft | 90 kts | 342° |
| 2026-05-01 14:25 | 33.36443 | -7.58685 | 651 ft | 142 kts | 343° |
| 2026-05-01 14:25 | 33.37531 | -7.59051 | 783 ft | 172 kts | 345° |
| 2026-05-01 14:25 | 33.38654 | -7.59467 | 1428 ft | 169 kts | 344° |
| 2026-05-01 14:25 | 33.39828 | -7.59843 | 1832 ft | 184 kts | 346° |
| 2026-05-01 14:26 | 33.41143 | -7.60264 | 2219 ft | 204 kts | 343° |
| 2026-05-01 14:26 | 33.43523 | -7.62428 | 3031 ft | 237 kts | 307° |
| 2026-05-01 14:26 | 33.44460 | -7.64088 | 3645 ft | 244 kts | 303° |
| 2026-05-01 14:27 | 33.45374 | -7.65807 | 4290 ft | 248 kts | 303° |
| 2026-05-01 14:27 | 33.46308 | -7.67554 | 4922 ft | 253 kts | 303° |
| 2026-05-01 14:27 | 33.47266 | -7.69318 | 5560 ft | 257 kts | 303° |
| 2026-05-01 14:28 | 33.49255 | -7.72936 | 6948 ft | 261 kts | 301° |
| 2026-05-01 14:28 | 33.50245 | -7.74735 | 7660 ft | 262 kts | 300° |
| 2026-05-01 14:28 | 33.51238 | -7.76541 | 8363 ft | 264 kts | 300° |
| 2026-05-01 14:28 | 33.52250 | -7.78384 | 9038 ft | 267 kts | 300° |
| 2026-05-01 14:29 | 33.53272 | -7.80241 | 9791 ft | 268 kts | 300° |
| 2026-05-01 14:29 | 33.54304 | -7.82118 | 10498 ft | 270 kts | 300° |
| 2026-05-01 14:30 | 33.57695 | -7.87594 | 12634 ft | 282 kts | 320° |
| 2026-05-01 14:30 | 33.59494 | -7.88638 | 13346 ft | 292 kts | 343° |
| 2026-05-01 14:30 | 33.61562 | -7.88844 | 13812 ft | 310 kts | 2° |
| 2026-05-01 14:31 | 33.66053 | -7.87792 | 14528 ft | 342 kts | 10° |
| 2026-05-01 14:31 | 33.68414 | -7.87143 | 14857 ft | 357 kts | 10° |
| 2026-05-01 14:31 | 33.70893 | -7.86469 | 15303 ft | 370 kts | 9° |
| 2026-05-01 14:31 | 33.73446 | -7.85786 | 15727 ft | 383 kts | 9° |
| 2026-05-01 14:32 | 33.76053 | -7.85095 | 16373 ft | 389 kts | 9° |
| 2026-05-01 14:32 | 33.78703 | -7.84396 | 17024 ft | 393 kts | 9° |
| 2026-05-01 14:32 | 33.81380 | -7.83692 | 17637 ft | 396 kts | 8° |
| 2026-05-01 14:32 | 33.84070 | -7.82985 | 18338 ft | 398 kts | 8° |
| 2026-05-01 14:33 | 33.86818 | -7.82263 | 18899 ft | 403 kts | 8° |
| 2026-05-01 14:33 | 33.89556 | -7.81544 | 19543 ft | 407 kts | 8° |
| 2026-05-01 14:33 | 33.92328 | -7.80817 | 20152 ft | 410 kts | 8° |
| 2026-05-01 14:33 | 33.95144 | -7.80077 | 20729 ft | 414 kts | 8° |
| 2026-05-01 14:34 | 33.97929 | -7.79345 | 21328 ft | 416 kts | 8° |
| 2026-05-01 14:34 | 34.00769 | -7.78596 | 21908 ft | 418 kts | 7° |
| 2026-05-01 14:34 | 34.03649 | -7.77837 | 22432 ft | 422 kts | 7° |
| 2026-05-01 14:34 | 34.06527 | -7.77078 | 22956 ft | 426 kts | 7° |
| 2026-05-01 14:35 | 34.09428 | -7.76313 | 23486 ft | 428 kts | 7° |
| 2026-05-01 14:35 | 34.12334 | -7.75546 | 23952 ft | 432 kts | 7° |
| 2026-05-01 14:35 | 34.15291 | -7.74803 | 24498 ft | 433 kts | 6° |
| 2026-05-01 14:35 | 34.18235 | -7.74226 | 25006 ft | 432 kts | 1° |
| 2026-05-01 14:36 | 34.21246 | -7.73989 | 25446 ft | 432 kts | 355° |
| 2026-05-01 14:36 | 34.24239 | -7.74026 | 25894 ft | 432 kts | 352° |
| 2026-05-01 14:36 | 34.27263 | -7.74203 | 26319 ft | 435 kts | 350° |
| 2026-05-01 14:36 | 34.30265 | -7.74439 | 26872 ft | 434 kts | 350° |
| 2026-05-01 14:37 | 34.33286 | -7.74695 | 27331 ft | 436 kts | 350° |
| 2026-05-01 14:37 | 34.36324 | -7.74951 | 27723 ft | 440 kts | 350° |
| 2026-05-01 14:37 | 34.39371 | -7.75199 | 28125 ft | 443 kts | 350° |
| 2026-05-01 14:37 | 34.42501 | -7.75445 | 28545 ft | 446 kts | 350° |
| 2026-05-01 14:38 | 34.45601 | -7.75678 | 28999 ft | 447 kts | 350° |
| 2026-05-01 14:38 | 34.48730 | -7.75908 | 29314 ft | 452 kts | 350° |
| 2026-05-01 14:38 | 34.51858 | -7.76132 | 29828 ft | 451 kts | 350° |
| 2026-05-01 14:38 | 34.54956 | -7.76349 | 30351 ft | 450 kts | 350° |
| 2026-05-01 14:39 | 34.58072 | -7.76565 | 30868 ft | 448 kts | 350° |
| 2026-05-01 14:39 | 34.61209 | -7.76783 | 31327 ft | 448 kts | 350° |
| 2026-05-01 14:39 | 34.64295 | -7.76997 | 31810 ft | 447 kts | 350° |
| 2026-05-01 14:39 | 34.67415 | -7.77213 | 32254 ft | 446 kts | 349° |
| 2026-05-01 14:40 | 34.70518 | -7.77429 | 32691 ft | 446 kts | 349° |
| 2026-05-01 14:40 | 34.73580 | -7.77642 | 33083 ft | 446 kts | 349° |
| 2026-05-01 14:40 | 34.76671 | -7.77866 | 33452 ft | 446 kts | 349° |
| 2026-05-01 14:40 | 34.79773 | -7.78113 | 33882 ft | 444 kts | 349° |
| 2026-05-01 14:41 | 34.82862 | -7.78371 | 34371 ft | 442 kts | 348° |
| 2026-05-01 14:41 | 34.85887 | -7.78627 | 34924 ft | 438 kts | 348° |
| 2026-05-01 14:41 | 34.88921 | -7.78886 | 35374 ft | 436 kts | 348° |
| 2026-05-01 14:41 | 34.91959 | -7.79146 | 35773 ft | 436 kts | 348° |
| 2026-05-01 14:42 | 34.94983 | -7.79404 | 36117 ft | 436 kts | 348° |
| 2026-05-01 14:42 | 35.01049 | -7.79924 | 36110 ft | 438 kts | 348° |
| 2026-05-01 14:43 | 35.07181 | -7.80451 | 36115 ft | 448 kts | 348° |
| 2026-05-01 14:43 | 35.13485 | -7.80990 | 36110 ft | 454 kts | 348° |
| 2026-05-01 14:44 | 35.19762 | -7.81514 | 36112 ft | 453 kts | 348° |
| 2026-05-01 14:44 | 35.29159 | -7.82298 | 36111 ft | 453 kts | 348° |
| 2026-05-01 14:45 | 35.38596 | -7.83094 | 36114 ft | 455 kts | 348° |
| 2026-05-01 14:46 | 35.44913 | -7.83636 | 36120 ft | 455 kts | 348° |
| 2026-05-01 14:46 | 35.54349 | -7.84483 | 36112 ft | 452 kts | 348° |
| 2026-05-01 14:47 | 35.60624 | -7.85056 | 36106 ft | 455 kts | 348° |
| 2026-05-01 14:48 | 35.70050 | -7.85910 | 36109 ft | 454 kts | 348° |
| 2026-05-01 14:48 | 35.79452 | -7.86761 | 36106 ft | 452 kts | 348° |
| 2026-05-01 14:49 | 35.92092 | -7.87914 | 36115 ft | 454 kts | 348° |
| 2026-05-01 14:50 | 36.04868 | -7.87513 | 36125 ft | 466 kts | 358° |
| 2026-05-01 14:51 | 36.14514 | -7.86242 | 36099 ft | 463 kts | 358° |
| 2026-05-01 14:52 | 36.24184 | -7.84972 | 36097 ft | 465 kts | 358° |
| 2026-05-01 14:53 | 36.33855 | -7.83746 | 36094 ft | 466 kts | 358° |
| 2026-05-01 14:53 | 36.40296 | -7.82935 | 36105 ft | 466 kts | 358° |
| 2026-05-01 14:54 | 36.46697 | -7.82133 | 36096 ft | 465 kts | 358° |
| 2026-05-01 14:54 | 36.53168 | -7.81325 | 36111 ft | 466 kts | 358° |
| 2026-05-01 14:55 | 36.59597 | -7.80521 | 36124 ft | 465 kts | 358° |
| 2026-05-01 14:55 | 36.65995 | -7.79717 | 36101 ft | 466 kts | 358° |
| 2026-05-01 14:56 | 36.72419 | -7.78911 | 36110 ft | 464 kts | 358° |
| 2026-05-01 14:56 | 36.78858 | -7.78104 | 36106 ft | 466 kts | 358° |
| 2026-05-01 14:57 | 36.85281 | -7.77292 | 36120 ft | 464 kts | 358° |
| 2026-05-01 14:57 | 36.94930 | -7.76075 | 36133 ft | 466 kts | 358° |
| 2026-05-01 14:58 | 37.01343 | -7.75264 | 36138 ft | 465 kts | 358° |
| 2026-05-01 14:58 | 37.07805 | -7.74446 | 36129 ft | 465 kts | 358° |
| 2026-05-01 14:59 | 37.14230 | -7.73628 | 36129 ft | 465 kts | 358° |
| 2026-05-01 14:59 | 37.20634 | -7.72814 | 36125 ft | 466 kts | 358° |
| 2026-05-01 15:00 | 37.30296 | -7.71581 | 36122 ft | 464 kts | 358° |
| 2026-05-01 15:01 | 37.36721 | -7.70763 | 36110 ft | 466 kts | 358° |
| 2026-05-01 15:01 | 37.43146 | -7.69942 | 36109 ft | 467 kts | 358° |
| 2026-05-01 15:02 | 37.49655 | -7.69111 | 36095 ft | 469 kts | 358° |
| 2026-05-01 15:02 | 37.56082 | -7.68283 | 36096 ft | 465 kts | 358° |
| 2026-05-01 15:03 | 37.62530 | -7.67453 | 36089 ft | 468 kts | 358° |
| 2026-05-01 15:03 | 37.69028 | -7.66617 | 36097 ft | 468 kts | 358° |
| 2026-05-01 15:04 | 37.75480 | -7.65783 | 36099 ft | 466 kts | 358° |
| 2026-05-01 15:04 | 37.81930 | -7.64951 | 36093 ft | 468 kts | 358° |
| 2026-05-01 15:05 | 37.88406 | -7.64113 | 36094 ft | 468 kts | 358° |
| 2026-05-01 15:05 | 37.94866 | -7.63272 | 36122 ft | 468 kts | 358° |
| 2026-05-01 15:06 | 38.01369 | -7.62432 | 36116 ft | 466 kts | 358° |
| 2026-05-01 15:06 | 38.07812 | -7.61539 | 36104 ft | 470 kts | 1° |
| 2026-05-01 15:07 | 38.14256 | -7.59886 | 36116 ft | 477 kts | 7° |
| 2026-05-01 15:07 | 38.20670 | -7.57605 | 36087 ft | 479 kts | 9° |
| 2026-05-01 15:08 | 38.27068 | -7.55277 | 36078 ft | 479 kts | 8° |
| 2026-05-01 15:08 | 38.33498 | -7.53045 | 36112 ft | 479 kts | 8° |
| 2026-05-01 15:09 | 38.39887 | -7.50867 | 36071 ft | 476 kts | 7° |
| 2026-05-01 15:09 | 38.46292 | -7.48675 | 36083 ft | 476 kts | 7° |
| 2026-05-01 15:10 | 38.52734 | -7.46458 | 36078 ft | 480 kts | 7° |
| 2026-05-01 15:10 | 38.62339 | -7.43140 | 36077 ft | 482 kts | 7° |
| 2026-05-01 15:11 | 38.71973 | -7.39805 | 36067 ft | 478 kts | 7° |
| 2026-05-01 15:12 | 38.78418 | -7.37567 | 36089 ft | 480 kts | 7° |
| 2026-05-01 15:12 | 38.88021 | -7.34228 | 36075 ft | 481 kts | 8° |
| 2026-05-01 15:14 | 39.04089 | -7.28625 | 36087 ft | 479 kts | 8° |
| 2026-05-01 15:14 | 39.13717 | -7.25250 | 36088 ft | 480 kts | 8° |
| 2026-05-01 15:15 | 39.26388 | -7.19651 | 36102 ft | 487 kts | 19° |
| 2026-05-01 15:16 | 39.38504 | -7.11597 | 36081 ft | 490 kts | 21° |
| 2026-05-01 15:18 | 39.53630 | -7.01364 | 36078 ft | 492 kts | 21° |
| 2026-05-01 15:19 | 39.65705 | -6.93271 | 36071 ft | 490 kts | 20° |
| 2026-05-01 15:19 | 39.74793 | -6.87176 | 36074 ft | 490 kts | 21° |
| 2026-05-01 15:20 | 39.83821 | -6.81101 | 36080 ft | 489 kts | 20° |
| 2026-05-01 15:21 | 39.89881 | -6.77020 | 36072 ft | 488 kts | 21° |
| 2026-05-01 15:21 | 39.95906 | -6.72949 | 36079 ft | 489 kts | 21° |
| 2026-05-01 15:22 | 40.04960 | -6.66817 | 36085 ft | 488 kts | 20° |
| 2026-05-01 15:22 | 40.10965 | -6.62734 | 36098 ft | 486 kts | 20° |
| 2026-05-01 15:23 | 40.16994 | -6.58635 | 36102 ft | 488 kts | 21° |
| 2026-05-01 15:23 | 40.22968 | -6.54562 | 36109 ft | 485 kts | 21° |
| 2026-05-01 15:24 | 40.28993 | -6.50447 | 36109 ft | 486 kts | 21° |
| 2026-05-01 15:24 | 40.34983 | -6.46347 | 36108 ft | 487 kts | 21° |
| 2026-05-01 15:25 | 40.37974 | -6.44299 | 35801 ft | 487 kts | 21° |
| 2026-05-01 15:25 | 40.40961 | -6.42253 | 36144 ft | 487 kts | 21° |
| 2026-05-01 15:25 | 40.46968 | -6.38129 | 36116 ft | 486 kts | 21° |
| 2026-05-01 15:26 | 40.52961 | -6.34003 | 36117 ft | 486 kts | 22° |
| 2026-05-01 15:26 | 40.58924 | -6.29887 | 36365 ft | 479 kts | 22° |
| 2026-05-01 15:27 | 40.61818 | -6.27882 | 37414 ft | 471 kts | 22° |
| 2026-05-01 15:27 | 40.64723 | -6.25870 | 37671 ft | 468 kts | 21° |
| 2026-05-01 15:27 | 40.67580 | -6.23897 | 37921 ft | 469 kts | 21° |
| 2026-05-01 15:28 | 40.73367 | -6.19906 | 38113 ft | 472 kts | 22° |
| 2026-05-01 15:28 | 40.79149 | -6.15905 | 38131 ft | 471 kts | 22° |
| 2026-05-01 15:29 | 40.87829 | -6.09881 | 38129 ft | 470 kts | 22° |
| 2026-05-01 15:30 | 40.99393 | -6.01828 | 38129 ft | 470 kts | 22° |
| 2026-05-01 15:31 | 41.16642 | -5.89746 | 38130 ft | 468 kts | 23° |
| 2026-05-01 15:32 | 41.28126 | -5.81659 | 38138 ft | 468 kts | 23° |
| 2026-05-01 15:34 | 41.45339 | -5.69473 | 38133 ft | 465 kts | 24° |